createdAt,value
2017-04-30T00:00:01.313Z,933.21
2017-04-30T00:00:19.538Z,933.2
2017-04-30T00:00:38.786Z,933.21
2017-04-30T00:00:58.017Z,933.16
2017-04-30T00:01:17.237Z,933.23
2017-04-30T00:01:36.019Z,933.19
2017-04-30T00:01:55.268Z,933.18
2017-04-30T00:02:14.499Z,933.16
2017-04-30T00:02:33.754Z,933.19
2017-04-30T00:02:53.039Z,933.16
2017-04-30T00:03:12.300Z,933.19
2017-04-30T00:03:31.034Z,933.18
2017-04-30T00:03:49.772Z,933.21
2017-04-30T00:04:09.031Z,933.17
2017-04-30T00:04:28.265Z,933.16
2017-04-30T00:04:47.523Z,933.16
2017-04-30T00:05:06.781Z,933.15
2017-04-30T00:05:25.497Z,933.17
2017-04-30T00:05:44.736Z,933.19
2017-04-30T00:06:03.997Z,933.15
2017-04-30T00:06:23.248Z,933.2
2017-04-30T00:06:42.484Z,933.18
2017-04-30T00:07:01.748Z,933.15
2017-04-30T00:07:19.931Z,933.19
2017-04-30T00:07:38.649Z,933.17
2017-04-30T00:07:57.930Z,933.15
2017-04-30T00:08:16.667Z,933.18
2017-04-30T00:08:35.878Z,933.16
2017-04-30T00:08:55.089Z,933.21
2017-04-30T00:09:14.332Z,933.18
2017-04-30T00:09:33.085Z,933.14
2017-04-30T00:09:52.320Z,933.19
2017-04-30T00:10:11.047Z,933.2
2017-04-30T00:10:30.283Z,933.21
2017-04-30T00:10:49.549Z,933.2
2017-04-30T00:11:08.785Z,933.23
2017-04-30T00:11:28.033Z,933.23
2017-04-30T00:11:47.280Z,933.23
2017-04-30T00:12:06.516Z,933.27
2017-04-30T00:12:25.220Z,933.29
2017-04-30T00:12:44.508Z,933.27
2017-04-30T00:13:03.737Z,933.3
2017-04-30T00:13:23.003Z,933.29
2017-04-30T00:13:41.781Z,933.24
2017-04-30T00:14:01.027Z,933.27
2017-04-30T00:14:20.274Z,933.27
2017-04-30T00:14:38.502Z,933.3
2017-04-30T00:14:57.726Z,933.28
2017-04-30T00:15:16.477Z,933.21
2017-04-30T00:15:35.181Z,933.25
2017-04-30T00:15:54.417Z,933.28
2017-04-30T00:16:13.648Z,933.32
2017-04-30T00:16:32.926Z,933.29
2017-04-30T00:16:52.170Z,933.26
2017-04-30T00:17:10.898Z,933.3
2017-04-30T00:17:30.149Z,933.25
2017-04-30T00:17:49.392Z,933.21
2017-04-30T00:18:08.567Z,933.27
2017-04-30T00:18:26.818Z,933.27
2017-04-30T00:18:45.555Z,933.2
2017-04-30T00:19:04.801Z,933.22
2017-04-30T00:19:23.480Z,933.22
2017-04-30T00:19:42.710Z,933.25
2017-04-30T00:20:01.943Z,933.23
2017-04-30T00:20:20.112Z,933.21
2017-04-30T00:20:38.811Z,933.22
2017-04-30T00:20:57.998Z,933.22
2017-04-30T00:21:16.744Z,933.19
2017-04-30T00:21:35.978Z,933.24
2017-04-30T00:21:55.183Z,933.23
2017-04-30T00:22:13.878Z,933.23
2017-04-30T00:22:32.607Z,933.19
2017-04-30T00:22:51.895Z,933.23
2017-04-30T00:23:11.154Z,933.2
2017-04-30T00:23:30.434Z,933.23
2017-04-30T00:23:49.188Z,933.24
2017-04-30T00:24:08.431Z,933.23
2017-04-30T00:24:27.685Z,933.26
2017-04-30T00:24:45.899Z,933.26
2017-04-30T00:25:05.128Z,933.27
2017-04-30T00:25:23.875Z,933.2
2017-04-30T00:25:43.107Z,933.18
2017-04-30T00:26:02.354Z,933.22
2017-04-30T00:26:21.621Z,933.22
2017-04-30T00:26:40.886Z,933.17
2017-04-30T00:27:00.082Z,933.18
2017-04-30T00:27:19.302Z,933.19
2017-04-30T00:27:38.019Z,933.19
2017-04-30T00:27:57.289Z,933.25
2017-04-30T00:28:16.527Z,933.25
2017-04-30T00:28:35.268Z,933.25
2017-04-30T00:28:54.500Z,933.27
2017-04-30T00:29:13.733Z,933.23
2017-04-30T00:29:32.947Z,933.3
2017-04-30T00:29:52.189Z,933.26
2017-04-30T00:30:11.434Z,933.21
2017-04-30T00:30:30.114Z,933.25
2017-04-30T00:30:49.352Z,933.28
2017-04-30T00:31:08.593Z,933.26
2017-04-30T00:31:27.857Z,933.21
2017-04-30T00:31:46.591Z,933.24
2017-04-30T00:32:05.888Z,933.28
2017-04-30T00:32:25.133Z,933.26
2017-04-30T00:32:43.852Z,933.24
2017-04-30T00:33:02.564Z,933.25
2017-04-30T00:33:21.793Z,933.24
2017-04-30T00:33:41.023Z,933.22
2017-04-30T00:34:00.275Z,933.19
2017-04-30T00:34:18.471Z,933.2
2017-04-30T00:34:37.188Z,933.16
2017-04-30T00:34:56.415Z,933.27
2017-04-30T00:35:15.707Z,933.3
2017-04-30T00:35:34.956Z,933.29
2017-04-30T00:35:54.238Z,933.27
2017-04-30T00:36:13.011Z,933.28
2017-04-30T00:36:32.263Z,933.26
2017-04-30T00:36:51.510Z,933.28
2017-04-30T00:37:10.258Z,933.25
2017-04-30T00:37:28.986Z,933.24
2017-04-30T00:37:48.240Z,933.18
2017-04-30T00:38:06.951Z,933.15
2017-04-30T00:38:26.266Z,933.19
2017-04-30T00:38:44.995Z,933.2
2017-04-30T00:39:04.294Z,933.23
2017-04-30T00:39:23.008Z,933.2
2017-04-30T00:39:41.715Z,933.21
2017-04-30T00:40:00.949Z,933.24
2017-04-30T00:40:19.694Z,933.23
2017-04-30T00:40:38.422Z,933.21
2017-04-30T00:40:57.629Z,933.26
2017-04-30T00:41:16.808Z,933.22
2017-04-30T00:41:35.517Z,933.25
2017-04-30T00:41:54.763Z,933.25
2017-04-30T00:42:13.990Z,933.27
2017-04-30T00:42:33.257Z,933.28
2017-04-30T00:42:52.509Z,933.29
2017-04-30T00:43:11.780Z,933.26
2017-04-30T00:43:30.532Z,933.28
2017-04-30T00:43:49.281Z,933.3
2017-04-30T00:44:08.520Z,933.32
2017-04-30T00:44:26.735Z,933.33
2017-04-30T00:44:45.969Z,933.32
2017-04-30T00:45:05.221Z,933.31
2017-04-30T00:45:24.445Z,933.32
2017-04-30T00:45:43.685Z,933.31
2017-04-30T00:46:02.958Z,933.29
2017-04-30T00:46:21.708Z,933.29
2017-04-30T00:46:40.958Z,933.28
2017-04-30T00:47:00.201Z,933.29
2017-04-30T00:47:19.422Z,933.31
2017-04-30T00:47:38.650Z,933.29
2017-04-30T00:47:57.886Z,933.3
2017-04-30T00:48:16.609Z,933.29
2017-04-30T00:48:35.841Z,933.37
2017-04-30T00:48:55.091Z,933.34
2017-04-30T00:49:14.362Z,933.33
2017-04-30T00:49:33.091Z,933.33
2017-04-30T00:49:52.301Z,933.29
2017-04-30T00:50:11.508Z,933.3
2017-04-30T00:50:30.271Z,933.3
2017-04-30T00:50:49.523Z,933.31
2017-04-30T00:51:08.802Z,933.31
2017-04-30T00:51:28.118Z,933.33
2017-04-30T00:51:47.386Z,933.34
2017-04-30T00:52:06.622Z,933.35
2017-04-30T00:52:25.842Z,933.34
2017-04-30T00:52:44.616Z,933.34
2017-04-30T00:53:03.841Z,933.35
2017-04-30T00:53:23.158Z,933.36
2017-04-30T00:53:42.377Z,933.35
2017-04-30T00:54:01.637Z,933.39
2017-04-30T00:54:20.455Z,933.41
2017-04-30T00:54:39.172Z,933.42
2017-04-30T00:54:58.587Z,933.4
2017-04-30T00:55:17.856Z,933.36
2017-04-30T00:55:37.152Z,933.38
2017-04-30T00:55:56.398Z,933.39
2017-04-30T00:56:15.661Z,933.38
2017-04-30T00:56:34.911Z,933.41
2017-04-30T00:56:53.641Z,933.38
2017-04-30T00:57:12.946Z,933.41
2017-04-30T00:57:31.662Z,933.39
2017-04-30T00:57:50.915Z,933.39
2017-04-30T00:58:10.161Z,933.4
2017-04-30T00:58:29.379Z,933.41
2017-04-30T00:58:48.662Z,933.42
2017-04-30T00:59:07.405Z,933.42
2017-04-30T00:59:26.136Z,933.39
2017-04-30T00:59:45.416Z,933.42
2017-04-30T01:00:04.638Z,933.4
2017-04-30T01:00:23.371Z,933.42
2017-04-30T01:00:42.621Z,933.41
2017-04-30T01:01:01.879Z,933.41
2017-04-30T01:01:21.142Z,933.42
2017-04-30T01:01:39.857Z,933.37
2017-04-30T01:01:59.077Z,933.39
2017-04-30T01:02:17.789Z,933.41
2017-04-30T01:02:36.502Z,933.4
2017-04-30T01:02:55.741Z,933.37
2017-04-30T01:03:15.009Z,933.38
2017-04-30T01:03:34.288Z,933.35
2017-04-30T01:03:53.014Z,933.41
2017-04-30T01:04:12.255Z,933.39
2017-04-30T01:04:31.514Z,933.41
2017-04-30T01:04:50.782Z,933.38
2017-04-30T01:05:09.502Z,933.35
2017-04-30T01:05:28.243Z,933.4
2017-04-30T01:05:47.468Z,933.34
2017-04-30T01:06:06.215Z,933.37
2017-04-30T01:06:24.967Z,933.36
2017-04-30T01:06:44.229Z,933.39
2017-04-30T01:07:03.477Z,933.39
2017-04-30T01:07:21.690Z,933.4
2017-04-30T01:07:40.896Z,933.4
2017-04-30T01:08:00.128Z,933.41
2017-04-30T01:08:18.852Z,933.36
2017-04-30T01:08:37.616Z,933.38
2017-04-30T01:08:56.330Z,933.38
2017-04-30T01:09:15.600Z,933.37
2017-04-30T01:09:34.825Z,933.4
2017-04-30T01:09:54.062Z,933.43
2017-04-30T01:10:13.312Z,933.36
2017-04-30T01:10:32.565Z,933.39
2017-04-30T01:10:51.794Z,933.38
2017-04-30T01:11:11.013Z,933.38
2017-04-30T01:11:30.258Z,933.39
2017-04-30T01:11:49.504Z,933.42
2017-04-30T01:12:08.232Z,933.42
2017-04-30T01:12:26.924Z,933.38
2017-04-30T01:12:46.179Z,933.38
2017-04-30T01:13:05.473Z,933.4
2017-04-30T01:13:24.748Z,933.39
2017-04-30T01:13:44.007Z,933.41
2017-04-30T01:14:02.730Z,933.42
2017-04-30T01:14:21.960Z,933.41
2017-04-30T01:14:41.204Z,933.41
2017-04-30T01:15:00.452Z,933.44
2017-04-30T01:15:19.639Z,933.39
2017-04-30T01:15:38.897Z,933.37
2017-04-30T01:15:57.630Z,933.38
2017-04-30T01:16:16.835Z,933.39
2017-04-30T01:16:36.034Z,933.4
2017-04-30T01:16:55.251Z,933.41
2017-04-30T01:17:14.523Z,933.43
2017-04-30T01:17:33.751Z,933.37
2017-04-30T01:17:52.996Z,933.39
2017-04-30T01:18:12.219Z,933.36
2017-04-30T01:18:31.601Z,933.39
2017-04-30T01:18:50.850Z,933.37
2017-04-30T01:19:10.201Z,933.36
2017-04-30T01:19:28.889Z,933.4
2017-04-30T01:19:47.610Z,933.4
2017-04-30T01:20:06.345Z,933.4
2017-04-30T01:20:25.546Z,933.36
2017-04-30T01:20:44.326Z,933.4
2017-04-30T01:21:03.570Z,933.39
2017-04-30T01:21:23.215Z,933.38
2017-04-30T01:21:42.490Z,933.37
2017-04-30T01:22:01.212Z,933.39
2017-04-30T01:22:20.470Z,933.42
2017-04-30T01:22:39.224Z,933.38
2017-04-30T01:22:58.515Z,933.42
2017-04-30T01:23:16.742Z,933.42
2017-04-30T01:23:35.976Z,933.41
2017-04-30T01:23:55.252Z,933.4
2017-04-30T01:24:14.015Z,933.42
2017-04-30T01:24:33.264Z,933.41
2017-04-30T01:24:52.507Z,933.43
2017-04-30T01:25:11.271Z,933.43
2017-04-30T01:25:30.496Z,933.46
2017-04-30T01:25:49.258Z,933.45
2017-04-30T01:26:07.948Z,933.45
2017-04-30T01:26:27.166Z,933.42
2017-04-30T01:26:46.402Z,933.46
2017-04-30T01:27:05.660Z,933.43
2017-04-30T01:27:24.383Z,933.44
2017-04-30T01:27:43.648Z,933.4
2017-04-30T01:28:02.910Z,933.42
2017-04-30T01:28:22.154Z,933.41
2017-04-30T01:28:41.387Z,933.39
2017-04-30T01:29:00.121Z,933.4
2017-04-30T01:29:17.827Z,933.39
2017-04-30T01:29:37.152Z,933.4
2017-04-30T01:29:56.384Z,933.33
2017-04-30T01:30:15.635Z,933.26
2017-04-30T01:30:34.885Z,933.29
2017-04-30T01:30:54.160Z,933.24
2017-04-30T01:31:13.425Z,933.25
2017-04-30T01:31:32.179Z,933.22
2017-04-30T01:31:51.417Z,933.21
2017-04-30T01:32:10.144Z,933.2
2017-04-30T01:32:29.405Z,933.2
2017-04-30T01:32:48.639Z,933.16
2017-04-30T01:33:07.843Z,933.16
2017-04-30T01:33:26.542Z,933.21
2017-04-30T01:33:45.275Z,933.25
2017-04-30T01:34:04.499Z,933.27
2017-04-30T01:34:22.704Z,933.22
2017-04-30T01:34:41.979Z,933.2
2017-04-30T01:35:01.196Z,933.2
2017-04-30T01:35:19.409Z,933.23
2017-04-30T01:35:38.605Z,933.21
2017-04-30T01:35:57.831Z,933.2
2017-04-30T01:36:17.081Z,933.22
2017-04-30T01:36:36.326Z,933.23
2017-04-30T01:36:55.551Z,933.21
2017-04-30T01:37:14.271Z,933.21
2017-04-30T01:37:33.611Z,933.18
2017-04-30T01:37:52.693Z,933.19
2017-04-30T01:38:11.486Z,933.18
2017-04-30T01:38:30.706Z,933.24
2017-04-30T01:38:50.006Z,933.18
2017-04-30T01:39:09.241Z,933.23
2017-04-30T01:39:28.478Z,933.18
2017-04-30T01:39:47.716Z,933.23
2017-04-30T01:40:06.438Z,933.25
2017-04-30T01:40:25.184Z,933.24
2017-04-30T01:40:44.444Z,933.23
2017-04-30T01:41:03.669Z,933.22
2017-04-30T01:41:22.390Z,933.2
2017-04-30T01:41:41.649Z,933.23
2017-04-30T01:42:00.363Z,933.21
2017-04-30T01:42:19.618Z,933.26
2017-04-30T01:42:38.362Z,933.24
2017-04-30T01:42:57.123Z,933.23
2017-04-30T01:43:16.350Z,933.25
2017-04-30T01:43:35.614Z,933.24
2017-04-30T01:43:54.872Z,933.25
2017-04-30T01:44:14.111Z,933.25
2017-04-30T01:44:33.336Z,933.21
2017-04-30T01:44:52.567Z,933.28
2017-04-30T01:45:11.826Z,933.25
2017-04-30T01:45:31.060Z,933.23
2017-04-30T01:45:50.274Z,933.24
2017-04-30T01:46:09.562Z,933.27
2017-04-30T01:46:28.284Z,933.27
2017-04-30T01:46:47.536Z,933.21
2017-04-30T01:47:06.259Z,933.23
2017-04-30T01:47:25.027Z,933.22
2017-04-30T01:47:44.288Z,933.21
2017-04-30T01:48:03.035Z,933.2
2017-04-30T01:48:21.767Z,933.2
2017-04-30T01:48:41.016Z,933.19
2017-04-30T01:49:00.255Z,933.24
2017-04-30T01:49:19.521Z,933.23
2017-04-30T01:49:38.785Z,933.26
2017-04-30T01:49:58.035Z,933.22
2017-04-30T01:50:17.232Z,933.23
2017-04-30T01:50:36.469Z,933.2
2017-04-30T01:50:55.759Z,933.24
2017-04-30T01:51:15.013Z,933.27
2017-04-30T01:51:34.253Z,933.28
2017-04-30T01:51:53.501Z,933.25
2017-04-30T01:52:12.769Z,933.27
2017-04-30T01:52:32.015Z,933.3
2017-04-30T01:52:50.705Z,933.27
2017-04-30T01:53:09.949Z,933.28
2017-04-30T01:53:28.671Z,933.28
2017-04-30T01:53:48.038Z,933.36
2017-04-30T01:54:07.275Z,933.29
2017-04-30T01:54:26.523Z,933.28
2017-04-30T01:54:45.227Z,933.29
2017-04-30T01:55:04.474Z,933.3
2017-04-30T01:55:23.197Z,933.35
2017-04-30T01:55:42.482Z,933.31
2017-04-30T01:56:01.712Z,933.32
2017-04-30T01:56:19.924Z,933.31
2017-04-30T01:56:39.173Z,933.32
2017-04-30T01:56:58.434Z,933.31
2017-04-30T01:57:17.681Z,933.33
2017-04-30T01:57:36.897Z,933.33
2017-04-30T01:57:56.144Z,933.37
2017-04-30T01:58:14.353Z,933.36
2017-04-30T01:58:33.066Z,933.37
2017-04-30T01:58:52.309Z,933.32
2017-04-30T01:59:11.558Z,933.33
2017-04-30T01:59:30.817Z,933.32
2017-04-30T01:59:49.573Z,933.3
2017-04-30T02:00:08.393Z,933.31
2017-04-30T02:00:27.125Z,933.28
2017-04-30T02:00:46.401Z,933.33
2017-04-30T02:01:05.593Z,933.36
2017-04-30T02:01:24.825Z,933.35
2017-04-30T02:01:44.077Z,933.35
2017-04-30T02:02:03.334Z,933.38
2017-04-30T02:02:22.035Z,933.34
2017-04-30T02:02:41.250Z,933.36
2017-04-30T02:03:00.446Z,933.34
2017-04-30T02:03:20.695Z,933.4
2017-04-30T02:03:39.426Z,933.41
2017-04-30T02:03:58.653Z,933.38
2017-04-30T02:04:17.890Z,933.4
2017-04-30T02:04:37.127Z,933.4
2017-04-30T02:04:56.360Z,933.4
2017-04-30T02:05:15.585Z,933.43
2017-04-30T02:05:34.848Z,933.39
2017-04-30T02:05:53.570Z,933.39
2017-04-30T02:06:12.804Z,933.38
2017-04-30T02:06:32.024Z,933.32
2017-04-30T02:06:51.235Z,933.37
2017-04-30T02:07:10.497Z,933.36
2017-04-30T02:07:29.231Z,933.32
2017-04-30T02:07:48.440Z,933.34
2017-04-30T02:08:07.658Z,933.29
2017-04-30T02:08:26.881Z,933.26
2017-04-30T02:08:46.091Z,933.33
2017-04-30T02:09:05.334Z,933.28
2017-04-30T02:09:24.058Z,933.29
2017-04-30T02:09:42.784Z,933.35
2017-04-30T02:10:01.990Z,933.31
2017-04-30T02:10:21.241Z,933.31
2017-04-30T02:10:40.487Z,933.3
2017-04-30T02:10:59.218Z,933.32
2017-04-30T02:11:18.446Z,933.32
2017-04-30T02:11:37.681Z,933.29
2017-04-30T02:11:56.925Z,933.33
2017-04-30T02:12:16.171Z,933.29
2017-04-30T02:12:35.424Z,933.31
2017-04-30T02:12:54.685Z,933.29
2017-04-30T02:13:14.006Z,933.29
2017-04-30T02:13:33.252Z,933.29
2017-04-30T02:13:52.506Z,933.26
2017-04-30T02:14:11.756Z,933.26
2017-04-30T02:14:30.433Z,933.23
2017-04-30T02:14:49.132Z,933.25
2017-04-30T02:15:08.353Z,933.26
2017-04-30T02:15:27.065Z,933.27
2017-04-30T02:15:46.305Z,933.29
2017-04-30T02:16:05.528Z,933.3
2017-04-30T02:16:24.235Z,933.28
2017-04-30T02:16:42.998Z,933.3
2017-04-30T02:17:02.206Z,933.26
2017-04-30T02:17:20.916Z,933.32
2017-04-30T02:17:40.136Z,933.3
2017-04-30T02:17:59.390Z,933.27
2017-04-30T02:18:18.620Z,933.3
2017-04-30T02:18:37.871Z,933.24
2017-04-30T02:18:57.114Z,933.24
2017-04-30T02:19:16.353Z,933.24
2017-04-30T02:19:35.078Z,933.26
2017-04-30T02:19:54.336Z,933.28
2017-04-30T02:20:13.661Z,933.27
2017-04-30T02:20:32.418Z,933.28
2017-04-30T02:20:51.131Z,933.27
2017-04-30T02:21:10.382Z,933.31
2017-04-30T02:21:29.630Z,933.26
2017-04-30T02:21:48.882Z,933.3
2017-04-30T02:22:08.130Z,933.3
2017-04-30T02:22:26.828Z,933.31
2017-04-30T02:22:46.027Z,933.29
2017-04-30T02:23:05.232Z,933.28
2017-04-30T02:23:24.492Z,933.26
2017-04-30T02:23:43.194Z,933.27
2017-04-30T02:24:01.907Z,933.25
2017-04-30T02:24:21.137Z,933.24
2017-04-30T02:24:40.372Z,933.21
2017-04-30T02:24:59.611Z,933.28
2017-04-30T02:25:17.823Z,933.25
2017-04-30T02:25:37.069Z,933.25
2017-04-30T02:25:56.313Z,933.22
2017-04-30T02:26:15.056Z,933.25
2017-04-30T02:26:34.286Z,933.26
2017-04-30T02:26:53.531Z,933.26
2017-04-30T02:27:12.759Z,933.2
2017-04-30T02:27:31.448Z,933.21
2017-04-30T02:27:49.666Z,933.22
2017-04-30T02:28:08.910Z,933.22
2017-04-30T02:28:27.650Z,933.19
2017-04-30T02:28:46.897Z,933.24
2017-04-30T02:29:05.621Z,933.23
2017-04-30T02:29:24.860Z,933.23
2017-04-30T02:29:44.116Z,933.25
2017-04-30T02:30:03.344Z,933.24
2017-04-30T02:30:21.573Z,933.24
2017-04-30T02:30:40.289Z,933.23
2017-04-30T02:30:59.501Z,933.17
2017-04-30T02:31:18.760Z,933.24
2017-04-30T02:31:38.021Z,933.24
2017-04-30T02:31:56.767Z,933.19
2017-04-30T02:32:16.027Z,933.23
2017-04-30T02:32:35.287Z,933.27
2017-04-30T02:32:54.032Z,933.18
2017-04-30T02:33:12.792Z,933.24
2017-04-30T02:33:32.042Z,933.25
2017-04-30T02:33:51.260Z,933.2
2017-04-30T02:34:10.530Z,933.21
2017-04-30T02:34:29.758Z,933.25
2017-04-30T02:34:48.492Z,933.24
2017-04-30T02:35:07.722Z,933.19
2017-04-30T02:35:26.457Z,933.19
2017-04-30T02:35:45.162Z,933.25
2017-04-30T02:36:04.399Z,933.25
2017-04-30T02:36:23.151Z,933.22
2017-04-30T02:36:42.409Z,933.23
2017-04-30T02:37:01.656Z,933.19
2017-04-30T02:37:20.394Z,933.21
2017-04-30T02:37:39.623Z,933.23
2017-04-30T02:37:58.856Z,933.19
2017-04-30T02:38:18.067Z,933.18
2017-04-30T02:38:37.322Z,933.2
2017-04-30T02:38:56.556Z,933.18
2017-04-30T02:39:15.779Z,933.17
2017-04-30T02:39:35.378Z,933.17
2017-04-30T02:39:54.762Z,933.14
2017-04-30T02:40:15.444Z,933.17
2017-04-30T02:40:35.357Z,933.15
2017-04-30T02:40:54.738Z,933.16
2017-04-30T02:41:14.084Z,933.13
2017-04-30T02:41:34.007Z,933.15
2017-04-30T02:41:53.937Z,933.18
2017-04-30T02:42:13.814Z,933.19
2017-04-30T02:42:33.769Z,933.22
2017-04-30T02:42:52.757Z,933.17
2017-04-30T02:43:12.680Z,933.15
2017-04-30T02:43:32.053Z,933.15
2017-04-30T02:43:51.996Z,933.12
2017-04-30T02:44:11.933Z,933.13
2017-04-30T02:44:30.770Z,933.15
2017-04-30T02:44:50.697Z,933.12
2017-04-30T02:45:10.624Z,933.16
2017-04-30T02:45:30.006Z,933.14
2017-04-30T02:45:49.417Z,933.1
2017-04-30T02:46:09.364Z,933.17
2017-04-30T02:46:29.309Z,933.11
2017-04-30T02:46:49.252Z,933.11
2017-04-30T02:47:09.176Z,933.11
2017-04-30T02:47:29.138Z,933.15
2017-04-30T02:47:49.068Z,933.13
2017-04-30T02:48:08.995Z,933.14
2017-04-30T02:48:28.931Z,933.12
2017-04-30T02:48:48.301Z,933.12
2017-04-30T02:49:08.226Z,933.09
2017-04-30T02:49:27.597Z,933.13
2017-04-30T02:49:46.974Z,933.18
2017-04-30T02:50:06.923Z,933.16
2017-04-30T02:50:26.873Z,933.17
2017-04-30T02:50:46.809Z,933.16
2017-04-30T02:51:06.758Z,933.12
2017-04-30T02:51:26.144Z,933.16
2017-04-30T02:51:46.080Z,933.1
2017-04-30T02:52:05.459Z,933.1
2017-04-30T02:52:25.375Z,933.07
2017-04-30T02:52:44.742Z,933.12
2017-04-30T02:53:04.710Z,933.13
2017-04-30T02:53:24.688Z,933.12
2017-04-30T02:53:44.614Z,933.07
2017-04-30T02:54:04.556Z,933.09
2017-04-30T02:54:24.514Z,933.07
2017-04-30T02:54:44.459Z,933.1
2017-04-30T02:55:04.388Z,933.06
2017-04-30T02:55:23.757Z,933.08
2017-04-30T02:55:43.708Z,933.08
2017-04-30T02:56:03.627Z,933.11
2017-04-30T02:56:22.997Z,933.08
2017-04-30T02:56:42.387Z,933.09
2017-04-30T02:57:02.307Z,933.12
2017-04-30T02:57:22.219Z,933.12
2017-04-30T02:57:42.164Z,933.04
2017-04-30T02:58:02.088Z,933.07
2017-04-30T02:58:21.521Z,933.08
2017-04-30T02:58:41.463Z,933.09
2017-04-30T02:59:01.398Z,933.11
2017-04-30T02:59:21.339Z,933.12
2017-04-30T02:59:41.449Z,933.04
2017-04-30T03:00:01.391Z,933.09
2017-04-30T03:00:20.809Z,933.09
2017-04-30T03:00:40.181Z,933.13
2017-04-30T03:01:00.125Z,933.06
2017-04-30T03:01:19.533Z,933.01
2017-04-30T03:01:39.488Z,933.08
2017-04-30T03:01:58.868Z,933.05
2017-04-30T03:02:18.818Z,933.04
2017-04-30T03:02:38.173Z,933.06
2017-04-30T03:02:58.103Z,933.04
2017-04-30T03:03:17.471Z,933.09
2017-04-30T03:03:37.417Z,933.1
2017-04-30T03:03:57.361Z,933.11
2017-04-30T03:04:17.296Z,933.09
2017-04-30T03:04:37.252Z,933.16
2017-04-30T03:04:57.175Z,933.11
2017-04-30T03:05:17.107Z,933.07
2017-04-30T03:05:37.066Z,933.11
2017-04-30T03:05:57.207Z,933.07
2017-04-30T03:06:17.135Z,933.07
2017-04-30T03:06:36.497Z,933.06
2017-04-30T03:06:56.453Z,933.07
2017-04-30T03:07:16.366Z,933.07
2017-04-30T03:07:36.312Z,933.05
2017-04-30T03:07:56.220Z,933.01
2017-04-30T03:08:16.172Z,933.06
2017-04-30T03:08:36.111Z,933.07
2017-04-30T03:08:56.061Z,933
2017-04-30T03:09:15.995Z,933
2017-04-30T03:09:35.942Z,933
2017-04-30T03:09:55.865Z,933.01
2017-04-30T03:10:15.793Z,933.02
2017-04-30T03:10:35.764Z,933
2017-04-30T03:10:55.839Z,933.03
2017-04-30T03:11:15.800Z,933.04
2017-04-30T03:11:35.714Z,933.05
2017-04-30T03:11:55.627Z,932.99
2017-04-30T03:12:15.012Z,933.05
2017-04-30T03:12:34.929Z,933.06
2017-04-30T03:12:54.302Z,933.01
2017-04-30T03:13:14.199Z,933.07
2017-04-30T03:13:34.127Z,933.07
2017-04-30T03:13:54.120Z,933.08
2017-04-30T03:14:14.090Z,933.06
2017-04-30T03:14:34.030Z,933.03
2017-04-30T03:14:53.392Z,933.07
2017-04-30T03:15:13.327Z,933.09
2017-04-30T03:15:33.273Z,933.08
2017-04-30T03:15:53.215Z,933.1
2017-04-30T03:16:13.114Z,933.1
2017-04-30T03:16:33.042Z,933.1
2017-04-30T03:16:52.976Z,933.09
2017-04-30T03:17:12.911Z,933.06
2017-04-30T03:17:32.866Z,933.02
2017-04-30T03:17:52.793Z,933.03
2017-04-30T03:18:12.742Z,933.09
2017-04-30T03:18:32.715Z,933.07
2017-04-30T03:18:52.116Z,933.06
2017-04-30T03:19:12.048Z,933.08
2017-04-30T03:19:31.402Z,933.11
2017-04-30T03:19:51.329Z,933.09
2017-04-30T03:20:11.278Z,933.11
2017-04-30T03:20:31.234Z,933.11
2017-04-30T03:20:51.196Z,933.11
2017-04-30T03:21:11.155Z,933.08
2017-04-30T03:21:30.543Z,933.1
2017-04-30T03:21:49.891Z,933.07
2017-04-30T03:22:09.821Z,933.11
2017-04-30T03:22:29.794Z,933.11
2017-04-30T03:22:49.690Z,933.09
2017-04-30T03:23:09.624Z,933.13
2017-04-30T03:23:29.004Z,933.06
2017-04-30T03:23:48.943Z,933.05
2017-04-30T03:24:08.887Z,933.07
2017-04-30T03:24:28.283Z,933.08
2017-04-30T03:24:48.207Z,933.09
2017-04-30T03:25:08.303Z,933.04
2017-04-30T03:25:28.261Z,933.05
2017-04-30T03:25:48.196Z,933.08
2017-04-30T03:26:08.152Z,933.09
2017-04-30T03:26:26.397Z,933.09
2017-04-30T03:26:46.370Z,933.08
2017-04-30T03:27:06.346Z,933.05
2017-04-30T03:27:25.717Z,933.11
2017-04-30T03:27:45.088Z,933.05
2017-04-30T03:28:05.041Z,933.02
2017-04-30T03:28:24.422Z,933.04
2017-04-30T03:28:44.365Z,933.06
2017-04-30T03:29:03.765Z,933.06
2017-04-30T03:29:23.701Z,933.06
2017-04-30T03:29:43.047Z,933.03
2017-04-30T03:30:02.974Z,933.04
2017-04-30T03:30:22.929Z,933.07
2017-04-30T03:30:42.828Z,933.02
2017-04-30T03:31:02.757Z,933.05
2017-04-30T03:31:22.685Z,933.05
2017-04-30T03:31:42.587Z,933.03
2017-04-30T03:32:02.527Z,933.07
2017-04-30T03:32:22.456Z,933.05
2017-04-30T03:32:42.395Z,933.07
2017-04-30T03:33:02.327Z,933.06
2017-04-30T03:33:22.306Z,933.02
2017-04-30T03:33:42.243Z,933.06
2017-04-30T03:34:02.179Z,933
2017-04-30T03:34:35.978Z,932.99
2017-04-30T03:34:55.933Z,932.95
2017-04-30T03:35:15.904Z,932.96
2017-04-30T03:35:35.832Z,932.97
2017-04-30T03:35:55.243Z,932.93
2017-04-30T03:36:15.251Z,932.91
2017-04-30T03:36:35.224Z,932.88
2017-04-30T03:36:55.148Z,932.91
2017-04-30T03:37:15.077Z,932.94
2017-04-30T03:37:35.012Z,932.95
2017-04-30T03:37:54.962Z,932.9
2017-04-30T03:38:14.901Z,932.92
2017-04-30T03:38:34.844Z,932.91
2017-04-30T03:38:54.215Z,932.88
2017-04-30T03:39:14.156Z,932.89
2017-04-30T03:39:34.084Z,932.88
2017-04-30T03:39:54.003Z,932.9
2017-04-30T03:40:13.932Z,932.89
2017-04-30T03:40:33.310Z,932.89
2017-04-30T03:40:53.234Z,932.91
2017-04-30T03:41:13.137Z,932.88
2017-04-30T03:41:33.041Z,932.88
2017-04-30T03:41:52.984Z,932.91
2017-04-30T03:42:12.898Z,932.93
2017-04-30T03:42:32.789Z,932.91
2017-04-30T03:42:52.207Z,932.88
2017-04-30T03:43:12.162Z,932.86
2017-04-30T03:43:32.107Z,932.86
2017-04-30T03:43:52.044Z,932.85
2017-04-30T03:44:12.007Z,932.85
2017-04-30T03:44:31.377Z,932.83
2017-04-30T03:44:50.810Z,932.79
2017-04-30T03:45:10.737Z,932.87
2017-04-30T03:45:30.683Z,932.83
2017-04-30T03:45:50.624Z,932.82
2017-04-30T03:46:10.533Z,932.82
2017-04-30T03:46:30.476Z,932.8
2017-04-30T03:46:50.347Z,932.81
2017-04-30T03:47:09.610Z,932.79
2017-04-30T03:47:28.338Z,932.73
2017-04-30T03:47:47.568Z,932.79
2017-04-30T03:48:06.802Z,932.79
2017-04-30T03:48:26.040Z,932.79
2017-04-30T03:48:45.304Z,932.77
2017-04-30T03:49:04.506Z,932.78
2017-04-30T03:49:23.204Z,932.82
2017-04-30T03:49:42.464Z,932.77
2017-04-30T03:50:01.703Z,932.72
2017-04-30T03:50:20.399Z,932.74
2017-04-30T03:50:39.133Z,932.8
2017-04-30T03:50:58.388Z,932.77
2017-04-30T03:51:17.619Z,932.75
2017-04-30T03:51:35.823Z,932.73
2017-04-30T03:51:55.076Z,932.72
2017-04-30T03:52:14.306Z,932.77
2017-04-30T03:52:33.577Z,932.73
2017-04-30T03:52:52.792Z,932.71
2017-04-30T03:53:11.510Z,932.77
2017-04-30T03:53:30.762Z,932.75
2017-04-30T03:53:49.531Z,932.72
2017-04-30T03:54:08.791Z,932.72
2017-04-30T03:54:28.025Z,932.73
2017-04-30T03:54:47.252Z,932.68
2017-04-30T03:55:06.009Z,932.74
2017-04-30T03:55:25.240Z,932.66
2017-04-30T03:55:44.449Z,932.67
2017-04-30T03:56:03.158Z,932.65
2017-04-30T03:56:22.383Z,932.68
2017-04-30T03:56:41.631Z,932.64
2017-04-30T03:57:00.892Z,932.62
2017-04-30T03:57:19.634Z,932.64
2017-04-30T03:57:38.885Z,932.65
2017-04-30T03:57:57.596Z,932.62
2017-04-30T03:58:16.839Z,932.62
2017-04-30T03:58:36.089Z,932.63
2017-04-30T03:58:55.301Z,932.63
2017-04-30T03:59:14.555Z,932.63
2017-04-30T03:59:33.827Z,932.64
2017-04-30T03:59:53.057Z,932.64
2017-04-30T04:00:11.778Z,932.67
2017-04-30T04:00:30.501Z,932.59
2017-04-30T04:00:50.180Z,932.67
2017-04-30T04:01:08.898Z,932.64
2017-04-30T04:01:27.611Z,932.59